RYR26NS EDLV-EPSY
Flight info
| Callsign | RYR26NS |
|---|---|
| Flight time | N/A |
| Altitude | 39000 |
| Route | ERKUM L179 MISRI Z851 ROBEG L980 HLZ DCT GILAS DCT DEKUT N858 GRUDA T720 IBINO |
| Aircraft | B738/M-VGDW/C |
Departure
| Time | N/A |
|---|---|
| Airport | Weeze (Niederrhein) Airport (EDLV) |
Arrival
| Time | 2026-05-04 07:17 |
|---|---|
| Airport | Olsztyn-Mazury Airport (EPSY) |
| Time | Latitude | Longitude | Altitude | Speed | Heading |
|---|---|---|---|---|---|
| 2026-05-04 06:03 | 51.78596 | 7.09624 | 17949 ft | 421 kts | 57° |
| 2026-05-04 06:03 | 51.80223 | 7.13580 | 18490 ft | 425 kts | 57° |
| 2026-05-04 06:05 | 51.92001 | 7.42389 | 21853 ft | 452 kts | 57° |
| 2026-05-04 06:05 | 51.94983 | 7.51403 | 22722 ft | 457 kts | 73° |
| 2026-05-04 06:05 | 51.95879 | 7.56351 | 23180 ft | 459 kts | 77° |
| 2026-05-04 06:06 | 51.96705 | 7.61371 | 23606 ft | 462 kts | 78° |
| 2026-05-04 06:06 | 51.97519 | 7.66433 | 23958 ft | 465 kts | 78° |
| 2026-05-04 06:06 | 51.98331 | 7.71460 | 24309 ft | 468 kts | 77° |
| 2026-05-04 06:06 | 51.99172 | 7.76604 | 24660 ft | 471 kts | 77° |
| 2026-05-04 06:07 | 52.00025 | 7.81766 | 25018 ft | 474 kts | 77° |
| 2026-05-04 06:07 | 52.00888 | 7.86952 | 25358 ft | 477 kts | 76° |
| 2026-05-04 06:07 | 52.01759 | 7.92171 | 25702 ft | 480 kts | 76° |
| 2026-05-04 06:07 | 52.02635 | 7.97428 | 26038 ft | 483 kts | 76° |
| 2026-05-04 06:08 | 52.03502 | 8.02638 | 26358 ft | 485 kts | 76° |
| 2026-05-04 06:08 | 52.04382 | 8.07950 | 26690 ft | 488 kts | 76° |
| 2026-05-04 06:08 | 52.05264 | 8.13287 | 27018 ft | 490 kts | 76° |
| 2026-05-04 06:08 | 52.06147 | 8.18653 | 27324 ft | 493 kts | 76° |
| 2026-05-04 06:09 | 52.07032 | 8.24055 | 27627 ft | 496 kts | 76° |
| 2026-05-04 06:09 | 52.07921 | 8.29497 | 27950 ft | 498 kts | 76° |
| 2026-05-04 06:11 | 52.14162 | 8.68203 | 30128 ft | 508 kts | 76° |
| 2026-05-04 06:11 | 52.15047 | 8.73763 | 30532 ft | 505 kts | 76° |
| 2026-05-04 06:13 | 52.21043 | 9.11948 | 33172 ft | 490 kts | 78° |
| 2026-05-04 06:14 | 52.25030 | 9.44325 | 34720 ft | 484 kts | 85° |
| 2026-05-04 06:14 | 52.25480 | 9.49764 | 34949 ft | 484 kts | 85° |
| 2026-05-04 06:15 | 52.25938 | 9.55201 | 35150 ft | 483 kts | 85° |
| 2026-05-04 06:15 | 52.26399 | 9.60579 | 35319 ft | 484 kts | 85° |
| 2026-05-04 06:15 | 52.26875 | 9.66037 | 35511 ft | 484 kts | 84° |
| 2026-05-04 06:15 | 52.27352 | 9.71472 | 35728 ft | 484 kts | 84° |
| 2026-05-04 06:16 | 52.27831 | 9.76926 | 35928 ft | 483 kts | 84° |
| 2026-05-04 06:16 | 52.28306 | 9.82357 | 36102 ft | 484 kts | 84° |
| 2026-05-04 06:16 | 52.28781 | 9.87810 | 36292 ft | 484 kts | 84° |
| 2026-05-04 06:16 | 52.29250 | 9.93251 | 36486 ft | 483 kts | 84° |
| 2026-05-04 06:17 | 52.29713 | 9.98638 | 36658 ft | 483 kts | 84° |
| 2026-05-04 06:17 | 52.30176 | 10.04075 | 36820 ft | 484 kts | 84° |
| 2026-05-04 06:17 | 52.30638 | 10.09525 | 36990 ft | 484 kts | 84° |
| 2026-05-04 06:17 | 52.31096 | 10.14967 | 37165 ft | 483 kts | 84° |
| 2026-05-04 06:18 | 52.31553 | 10.20410 | 37336 ft | 483 kts | 84° |
| 2026-05-04 06:18 | 52.32008 | 10.25879 | 37487 ft | 483 kts | 84° |
| 2026-05-04 06:18 | 52.32458 | 10.31316 | 37653 ft | 483 kts | 84° |
| 2026-05-04 06:20 | 52.35532 | 10.69280 | 38688 ft | 481 kts | 84° |
| 2026-05-04 06:21 | 52.37787 | 10.96398 | 38960 ft | 484 kts | 83° |
| 2026-05-04 06:22 | 52.38749 | 11.07346 | 38963 ft | 486 kts | 83° |
| 2026-05-04 06:25 | 52.45093 | 11.84285 | 38948 ft | 481 kts | 84° |
| 2026-05-04 06:26 | 52.45940 | 11.95073 | 38948 ft | 478 kts | 85° |
| 2026-05-04 06:26 | 52.46779 | 12.05887 | 38947 ft | 476 kts | 85° |
| 2026-05-04 06:27 | 52.48819 | 12.32763 | 38956 ft | 474 kts | 85° |
| 2026-05-04 06:28 | 52.49611 | 12.43428 | 38956 ft | 474 kts | 85° |
| 2026-05-04 06:28 | 52.50401 | 12.54198 | 38961 ft | 476 kts | 85° |
| 2026-05-04 06:29 | 52.51185 | 12.65016 | 38958 ft | 478 kts | 85° |
| 2026-05-04 06:29 | 52.51961 | 12.75870 | 38955 ft | 480 kts | 85° |
| 2026-05-04 06:30 | 52.52730 | 12.86784 | 38953 ft | 482 kts | 85° |
| 2026-05-04 06:30 | 52.53489 | 12.97675 | 38951 ft | 483 kts | 86° |
| 2026-05-04 06:31 | 52.54244 | 13.08669 | 38950 ft | 485 kts | 86° |
| 2026-05-04 06:31 | 52.54991 | 13.19705 | 38959 ft | 486 kts | 86° |
| 2026-05-04 06:33 | 52.57874 | 13.63816 | 38959 ft | 484 kts | 86° |
| 2026-05-04 06:34 | 52.58562 | 13.74752 | 38956 ft | 483 kts | 86° |
| 2026-05-04 06:34 | 52.59244 | 13.85735 | 38951 ft | 481 kts | 86° |
| 2026-05-04 06:36 | 52.61845 | 14.29324 | 38955 ft | 477 kts | 86° |
| 2026-05-04 06:37 | 52.62470 | 14.40202 | 38957 ft | 476 kts | 86° |
| 2026-05-04 06:37 | 52.63117 | 14.51056 | 38954 ft | 477 kts | 83° |
| 2026-05-04 06:38 | 52.64857 | 14.61606 | 38968 ft | 479 kts | 72° |
| 2026-05-04 06:40 | 52.73465 | 15.03234 | 38961 ft | 481 kts | 72° |
| 2026-05-04 06:40 | 52.75565 | 15.13749 | 38956 ft | 482 kts | 72° |
| 2026-05-04 06:41 | 52.77657 | 15.24270 | 38952 ft | 483 kts | 72° |
| 2026-05-04 06:41 | 52.79731 | 15.34748 | 38957 ft | 483 kts | 72° |
| 2026-05-04 06:42 | 52.81809 | 15.45302 | 38957 ft | 482 kts | 73° |
| 2026-05-04 06:44 | 52.89987 | 15.87413 | 38953 ft | 478 kts | 73° |
| 2026-05-04 06:44 | 52.91986 | 15.97852 | 38952 ft | 478 kts | 73° |
| 2026-05-04 06:45 | 52.93985 | 16.08346 | 38955 ft | 477 kts | 73° |
| 2026-05-04 06:45 | 52.95972 | 16.18835 | 38954 ft | 475 kts | 73° |
| 2026-05-04 06:46 | 52.97945 | 16.29311 | 38950 ft | 475 kts | 73° |
| 2026-05-04 06:46 | 52.99895 | 16.39721 | 38951 ft | 474 kts | 73° |
| 2026-05-04 06:48 | 53.07323 | 16.79914 | 38948 ft | 476 kts | 73° |
| 2026-05-04 06:50 | 53.15910 | 17.21741 | 38948 ft | 479 kts | 67° |
| 2026-05-04 06:51 | 53.18434 | 17.32028 | 38947 ft | 479 kts | 68° |
| 2026-05-04 06:51 | 53.20907 | 17.42339 | 38949 ft | 478 kts | 68° |
| 2026-05-04 06:52 | 53.23350 | 17.52664 | 38946 ft | 477 kts | 68° |
| 2026-05-04 06:52 | 53.24570 | 17.57845 | 38588 ft | 483 kts | 69° |
| 2026-05-04 06:52 | 53.25799 | 17.63074 | 37993 ft | 483 kts | 69° |
| 2026-05-04 06:53 | 53.27021 | 17.68285 | 37426 ft | 480 kts | 69° |
| 2026-05-04 06:53 | 53.28222 | 17.73416 | 36868 ft | 479 kts | 69° |
| 2026-05-04 06:53 | 53.29431 | 17.78594 | 36287 ft | 478 kts | 69° |
| 2026-05-04 06:53 | 53.30639 | 17.83781 | 35726 ft | 478 kts | 69° |
| 2026-05-04 06:54 | 53.31843 | 17.88961 | 35103 ft | 479 kts | 69° |
| 2026-05-04 06:54 | 53.33049 | 17.94162 | 34478 ft | 480 kts | 69° |
| 2026-05-04 06:54 | 53.34257 | 17.99388 | 33823 ft | 482 kts | 70° |
| 2026-05-04 06:54 | 53.35459 | 18.04597 | 33337 ft | 478 kts | 70° |
| 2026-05-04 06:55 | 53.36654 | 18.09789 | 32844 ft | 475 kts | 70° |
| 2026-05-04 06:55 | 53.37835 | 18.14931 | 32374 ft | 471 kts | 70° |
| 2026-05-04 06:55 | 53.39008 | 18.20054 | 31923 ft | 468 kts | 70° |
| 2026-05-04 06:55 | 53.40154 | 18.25070 | 31486 ft | 464 kts | 70° |
| 2026-05-04 06:56 | 53.41301 | 18.30102 | 31055 ft | 461 kts | 70° |
| 2026-05-04 06:57 | 53.49043 | 18.64387 | 27907 ft | 436 kts | 70° |
| 2026-05-04 06:58 | 53.50107 | 18.69143 | 27462 ft | 433 kts | 70° |
| 2026-05-04 06:58 | 53.51163 | 18.73870 | 27032 ft | 430 kts | 70° |
| 2026-05-04 06:58 | 53.52035 | 18.78646 | 26594 ft | 426 kts | 79° |
| 2026-05-04 06:58 | 53.52432 | 18.83525 | 26259 ft | 418 kts | 87° |
| 2026-05-04 06:59 | 53.52619 | 18.88392 | 25837 ft | 416 kts | 88° |
| 2026-05-04 06:59 | 53.52776 | 18.93233 | 25413 ft | 413 kts | 89° |
| 2026-05-04 06:59 | 53.52929 | 18.98050 | 24987 ft | 412 kts | 88° |
| 2026-05-04 06:59 | 53.53089 | 19.02840 | 24584 ft | 410 kts | 88° |
| 2026-05-04 07:01 | 53.54267 | 19.35814 | 21543 ft | 396 kts | 88° |
| 2026-05-04 07:01 | 53.54428 | 19.40423 | 21131 ft | 394 kts | 89° |
| 2026-05-04 07:02 | 53.54586 | 19.45014 | 20722 ft | 392 kts | 89° |
| 2026-05-04 07:02 | 53.54742 | 19.49575 | 20311 ft | 390 kts | 89° |
| 2026-05-04 07:02 | 53.54895 | 19.54117 | 19914 ft | 388 kts | 89° |
| 2026-05-04 07:02 | 53.55043 | 19.58582 | 19517 ft | 386 kts | 89° |
| 2026-05-04 07:03 | 53.55192 | 19.63091 | 19108 ft | 385 kts | 89° |
| 2026-05-04 07:03 | 53.55338 | 19.67585 | 18697 ft | 384 kts | 89° |
| 2026-05-04 07:03 | 53.55482 | 19.72074 | 18280 ft | 384 kts | 89° |
| 2026-05-04 07:03 | 53.55625 | 19.76568 | 17831 ft | 383 kts | 89° |
| 2026-05-04 07:04 | 53.55766 | 19.81040 | 17400 ft | 382 kts | 89° |
| 2026-05-04 07:04 | 53.55905 | 19.85487 | 16991 ft | 380 kts | 89° |
| 2026-05-04 07:04 | 53.56041 | 19.89910 | 16597 ft | 377 kts | 89° |
| 2026-05-04 07:04 | 53.56175 | 19.94313 | 16198 ft | 375 kts | 89° |
| 2026-05-04 07:05 | 53.56049 | 19.98653 | 15787 ft | 369 kts | 107° |
| 2026-05-04 07:05 | 53.55180 | 20.02658 | 15427 ft | 362 kts | 117° |
| 2026-05-04 07:05 | 53.54143 | 20.06502 | 15028 ft | 360 kts | 118° |
| 2026-05-04 07:05 | 53.53099 | 20.10268 | 14644 ft | 359 kts | 118° |
| 2026-05-04 07:06 | 53.51005 | 20.17894 | 13830 ft | 358 kts | 118° |
| 2026-05-04 07:06 | 53.49974 | 20.21705 | 13407 ft | 357 kts | 118° |
| 2026-05-04 07:06 | 53.48954 | 20.25499 | 12999 ft | 355 kts | 117° |
| 2026-05-04 07:07 | 53.47941 | 20.29274 | 12604 ft | 353 kts | 117° |
| 2026-05-04 07:08 | 53.51081 | 20.53537 | 10302 ft | 334 kts | 40° |
| 2026-05-04 07:09 | 53.52775 | 20.56137 | 10148 ft | 326 kts | 41° |
| 2026-05-04 07:09 | 53.54419 | 20.58697 | 10010 ft | 318 kts | 41° |
| 2026-05-04 07:09 | 53.56003 | 20.61174 | 9899 ft | 310 kts | 40° |
| 2026-05-04 07:09 | 53.57602 | 20.63535 | 9604 ft | 306 kts | 38° |
| 2026-05-04 07:10 | 53.59247 | 20.65900 | 9147 ft | 311 kts | 38° |
| 2026-05-04 07:10 | 53.60912 | 20.68289 | 8724 ft | 315 kts | 39° |
| 2026-05-04 07:12 | 53.72324 | 20.85647 | 6132 ft | 320 kts | 63° |
| 2026-05-04 07:12 | 53.72934 | 20.89230 | 5766 ft | 319 kts | 88° |
| 2026-05-04 07:12 | 53.72660 | 20.92905 | 5378 ft | 315 kts | 111° |
| 2026-05-04 07:12 | 53.71844 | 20.96308 | 5029 ft | 312 kts | 116° |
| 2026-05-04 07:13 | 53.70931 | 20.99617 | 4666 ft | 309 kts | 126° |
| 2026-05-04 07:13 | 53.69464 | 21.02166 | 4283 ft | 299 kts | 151° |
| 2026-05-04 07:13 | 53.67592 | 21.03425 | 3985 ft | 283 kts | 173° |
| 2026-05-04 07:14 | 53.60652 | 21.00765 | 2826 ft | 241 kts | 201° |
| 2026-05-04 07:14 | 53.59112 | 20.99888 | 2535 ft | 226 kts | 201° |
| 2026-05-04 07:15 | 53.57676 | 20.99083 | 2273 ft | 209 kts | 201° |
| 2026-05-04 07:15 | 53.56340 | 20.98334 | 1968 ft | 194 kts | 202° |
| 2026-05-04 07:15 | 53.55118 | 20.97647 | 1727 ft | 176 kts | 201° |
| 2026-05-04 07:15 | 53.54008 | 20.97029 | 1501 ft | 162 kts | 202° |
| 2026-05-04 07:16 | 53.53003 | 20.96467 | 1313 ft | 145 kts | 204° |
| 2026-05-04 07:16 | 53.52092 | 20.95966 | 1125 ft | 133 kts | 198° |
| 2026-05-04 07:16 | 53.51244 | 20.95502 | 895 ft | 122 kts | 200° |
| 2026-05-04 07:16 | 53.50456 | 20.95038 | 710 ft | 119 kts | 199° |
| 2026-05-04 07:17 | 53.49649 | 20.94594 | 578 ft | 123 kts | 200° |
| 2026-05-04 07:17 | 53.48858 | 20.94146 | 469 ft | 115 kts | 198° |
| 2026-05-04 07:17 | 53.48280 | 20.93819 | 473 ft | 57 kts | 198° |
| 2026-05-04 07:17 | 53.48103 | 20.93710 | 469 ft | 3 kts | 208° |
| 2026-05-04 07:18 | 53.48082 | 20.93681 | 467 ft | 6 kts | 217° |
| 2026-05-04 07:18 | 53.48045 | 20.93673 | 464 ft | 5 kts | 131° |
| 2026-05-04 07:18 | 53.48065 | 20.93709 | 467 ft | 5 kts | 17° |
| 2026-05-04 07:18 | 53.48112 | 20.93734 | 466 ft | 9 kts | 17° |
| 2026-05-04 07:19 | 53.48177 | 20.93768 | 470 ft | 10 kts | 18° |
| 2026-05-04 07:19 | 53.48240 | 20.93804 | 472 ft | 10 kts | 19° |
| 2026-05-04 07:19 | 53.48304 | 20.93840 | 472 ft | 10 kts | 18° |
| 2026-05-04 07:19 | 53.48382 | 20.93881 | 471 ft | 13 kts | 18° |
| 2026-05-04 07:20 | 53.48471 | 20.93929 | 471 ft | 13 kts | 17° |
| 2026-05-04 07:20 | 53.48569 | 20.93981 | 468 ft | 17 kts | 18° |
| 2026-05-04 07:20 | 53.48680 | 20.94044 | 467 ft | 15 kts | 19° |
| 2026-05-04 07:20 | 53.48765 | 20.94128 | 467 ft | 9 kts | 53° |
| 2026-05-04 07:22 | 53.48815 | 20.94514 | 463 ft | 2 kts | 107° |
| 2026-05-04 07:22 | 53.48813 | 20.94527 | 465 ft | 0 kts | 107° |